createdAt,value
2017-09-15T00:01:08.603Z,32.30
2017-09-15T00:03:37.614Z,32.30
2017-09-15T00:06:06.926Z,32.20
2017-09-15T00:08:36.021Z,32.20
2017-09-15T00:11:07.792Z,32.20
2017-09-15T00:13:36.889Z,32.20
2017-09-15T00:16:06.482Z,32.20
2017-09-15T00:18:35.079Z,32.10
2017-09-15T00:21:04.577Z,32.10
2017-09-15T00:23:34.486Z,32.10
2017-09-15T00:26:03.379Z,32.00
2017-09-15T00:28:33.892Z,31.90
2017-09-15T00:31:05.015Z,31.90
2017-09-15T00:33:35.107Z,31.90
2017-09-15T00:36:05.326Z,31.90
2017-09-15T00:38:34.899Z,31.80
2017-09-15T00:41:04.646Z,31.90
2017-09-15T00:43:34.618Z,31.80
2017-09-15T00:46:04.743Z,31.80
2017-09-15T00:48:35.155Z,31.80
2017-09-15T00:51:04.414Z,31.80
2017-09-15T00:53:33.818Z,31.70
2017-09-15T00:56:03.218Z,31.70
2017-09-15T00:58:32.352Z,31.70
2017-09-15T01:01:03.025Z,31.50
2017-09-15T01:03:33.359Z,31.50
2017-09-15T01:06:02.515Z,31.50
2017-09-15T01:08:32.510Z,31.50
2017-09-15T01:11:00.985Z,31.40
2017-09-15T01:13:30.150Z,31.40
2017-09-15T01:15:58.671Z,31.30
2017-09-15T01:18:29.666Z,31.20
2017-09-15T01:20:59.174Z,31.20
2017-09-15T01:23:30.426Z,31.20
2017-09-15T01:25:59.562Z,31.20
2017-09-15T01:28:30.173Z,31.30
2017-09-15T01:30:58.582Z,31.20
2017-09-15T01:33:28.243Z,31.30
2017-09-15T01:35:58.238Z,31.20
2017-09-15T01:38:27.746Z,31.30
2017-09-15T01:40:58.738Z,31.20
2017-09-15T01:43:27.802Z,31.30
2017-09-15T01:45:56.661Z,31.20
2017-09-15T01:48:26.450Z,31.20
2017-09-15T01:50:55.133Z,31.20
2017-09-15T01:53:24.187Z,31.20
2017-09-15T01:55:55.382Z,31.30
2017-09-15T01:58:25.198Z,31.30
2017-09-15T02:00:56.506Z,31.30
2017-09-15T02:03:26.354Z,31.30
2017-09-15T02:05:55.763Z,31.30
2017-09-15T02:08:26.869Z,31.30
2017-09-15T02:10:56.899Z,31.40
2017-09-15T02:13:25.806Z,31.40
2017-09-15T02:15:56.034Z,31.40
2017-09-15T02:18:25.396Z,31.40
2017-09-15T02:20:55.558Z,31.30
2017-09-15T02:23:25.002Z,31.30
2017-09-15T02:25:54.625Z,31.30
2017-09-15T02:28:24.298Z,31.40
2017-09-15T02:30:55.642Z,31.30
2017-09-15T02:33:25.890Z,31.40
2017-09-15T02:35:56.107Z,31.50
2017-09-15T02:38:25.326Z,31.50
2017-09-15T02:40:57.347Z,31.20
2017-09-15T02:43:27.147Z,31.20
2017-09-15T02:45:56.780Z,31.30
2017-09-15T02:48:27.367Z,31.40
2017-09-15T02:50:57.046Z,31.60
2017-09-15T02:53:27.741Z,31.70
2017-09-15T02:55:58.127Z,31.80
2017-09-15T02:58:29.435Z,31.90
2017-09-15T03:00:58.579Z,31.90
2017-09-15T03:03:29.848Z,32.10
2017-09-15T03:05:59.959Z,32.10
2017-09-15T03:08:29.007Z,32.30
2017-09-15T03:11:00.473Z,32.40
2017-09-15T03:13:29.508Z,32.40
2017-09-15T03:15:58.690Z,32.50
2017-09-15T03:18:27.790Z,32.60
2017-09-15T03:20:56.887Z,32.90
2017-09-15T03:23:24.926Z,32.90
2017-09-15T03:25:53.070Z,33.00
2017-09-15T03:28:21.577Z,33.10
2017-09-15T03:30:49.608Z,33.20
2017-09-15T03:33:18.416Z,33.20
2017-09-15T03:35:47.033Z,33.20
2017-09-15T03:38:15.647Z,33.30
2017-09-15T03:40:45.095Z,33.60
2017-09-15T03:43:13.124Z,33.60
2017-09-15T03:45:42.630Z,33.90
2017-09-15T03:48:12.183Z,34.00
2017-09-15T03:50:40.862Z,34.00
2017-09-15T03:53:08.908Z,34.10
2017-09-15T03:55:37.730Z,34.20
2017-09-15T03:58:06.415Z,34.30
2017-09-15T04:00:35.089Z,34.40
2017-09-15T04:03:03.647Z,34.50
2017-09-15T04:05:32.174Z,34.60
2017-09-15T04:08:00.814Z,34.60
2017-09-15T04:10:30.570Z,34.90
2017-09-15T04:12:58.634Z,34.90
2017-09-15T04:15:27.154Z,34.90
2017-09-15T04:17:55.811Z,35.10
2017-09-15T04:20:24.500Z,35.20
2017-09-15T04:22:53.531Z,35.30
2017-09-15T04:25:22.895Z,35.40
2017-09-15T04:27:51.478Z,35.40
2017-09-15T04:30:19.499Z,35.80
2017-09-15T04:32:48.820Z,36.40
2017-09-15T04:35:17.338Z,36.40
2017-09-15T04:37:45.851Z,36.80
2017-09-15T04:40:14.750Z,37.20
2017-09-15T04:42:44.571Z,37.80
2017-09-15T04:45:13.144Z,38.40
2017-09-15T04:47:41.968Z,39.10
2017-09-15T04:50:10.375Z,40.50
2017-09-15T04:52:38.871Z,41.40
2017-09-15T04:55:07.782Z,41.70
2017-09-15T04:57:36.610Z,41.40
2017-09-15T05:00:05.885Z,40.80
2017-09-15T05:02:34.802Z,40.80
2017-09-15T05:05:03.944Z,40.40
2017-09-15T05:07:32.690Z,40.40
2017-09-15T05:10:01.282Z,40.20
2017-09-15T05:12:29.324Z,39.60
2017-09-15T05:14:58.798Z,39.90
2017-09-15T05:17:27.619Z,40.10
2017-09-15T05:19:56.419Z,41.70
2017-09-15T05:22:25.679Z,42.10
2017-09-15T05:24:55.007Z,42.10
2017-09-15T05:27:23.588Z,42.40
2017-09-15T05:29:52.415Z,43.30
2017-09-15T05:32:21.412Z,43.60
2017-09-15T05:34:50.224Z,43.30
2017-09-15T05:37:18.650Z,42.70
2017-09-15T05:39:47.401Z,41.80
2017-09-15T05:42:16.422Z,41.40
2017-09-15T05:44:45.116Z,41.20
2017-09-15T05:47:13.789Z,41.30
2017-09-15T05:49:42.368Z,41.30
2017-09-15T05:52:10.833Z,41.30
2017-09-15T05:54:39.495Z,40.80
2017-09-15T05:57:08.011Z,40.80
2017-09-15T05:59:36.701Z,41.00
2017-09-15T06:02:04.842Z,40.60
2017-09-15T06:04:33.362Z,40.80
2017-09-15T06:07:02.032Z,41.30
2017-09-15T06:09:30.696Z,41.80
2017-09-15T06:11:59.226Z,42.80
2017-09-15T06:14:27.760Z,43.50
2017-09-15T06:16:57.134Z,44.20
2017-09-15T06:19:25.886Z,44.20
2017-09-15T06:21:53.939Z,44.80
2017-09-15T06:24:22.782Z,44.30
2017-09-15T06:26:51.774Z,44.10
2017-09-15T06:29:20.500Z,43.30
2017-09-15T06:31:49.086Z,42.60
2017-09-15T06:34:17.607Z,42.50
2017-09-15T06:36:46.218Z,41.90
2017-09-15T06:39:14.938Z,41.90
2017-09-15T06:41:43.758Z,42.00
2017-09-15T06:44:12.246Z,42.00
2017-09-15T06:46:40.945Z,41.90
2017-09-15T06:49:09.586Z,41.80
2017-09-15T06:51:39.006Z,41.60
2017-09-15T06:54:07.246Z,41.50
2017-09-15T06:56:35.294Z,41.50
2017-09-15T06:59:03.951Z,41.60
2017-09-15T07:01:32.684Z,41.60
2017-09-15T07:04:00.783Z,41.60
2017-09-15T07:06:29.575Z,41.40
2017-09-15T07:08:58.445Z,41.60
2017-09-15T07:11:27.238Z,41.70
2017-09-15T07:13:56.293Z,41.60
2017-09-15T07:16:25.542Z,41.60
2017-09-15T07:18:54.783Z,41.70
2017-09-15T07:21:23.182Z,41.70
2017-09-15T07:23:51.928Z,41.80
2017-09-15T07:26:20.743Z,41.80
2017-09-15T07:28:49.283Z,41.90
2017-09-15T07:31:18.170Z,42.20
2017-09-15T07:33:47.096Z,42.30
2017-09-15T07:36:15.630Z,42.30
2017-09-15T07:38:44.507Z,42.40
2017-09-15T07:41:14.434Z,42.40
2017-09-15T07:43:43.083Z,42.40
2017-09-15T07:46:11.638Z,42.50
2017-09-15T07:48:39.671Z,42.60
2017-09-15T07:51:09.172Z,43.70
2017-09-15T07:53:39.402Z,44.70
2017-09-15T07:56:08.150Z,44.60
2017-09-15T07:58:36.836Z,45.50
2017-09-15T08:01:05.742Z,46.10
2017-09-15T08:03:33.788Z,46.80
2017-09-15T08:06:01.827Z,46.90
2017-09-15T08:08:31.452Z,45.00
2017-09-15T08:11:00.679Z,44.10
2017-09-15T08:13:29.279Z,44.10
2017-09-15T08:15:58.167Z,44.00
2017-09-15T08:18:26.854Z,44.00
2017-09-15T08:20:55.530Z,43.50
2017-09-15T08:23:23.793Z,43.00
2017-09-15T08:25:52.644Z,42.90
2017-09-15T08:28:21.946Z,42.10
2017-09-15T08:30:51.943Z,41.90
2017-09-15T08:33:19.981Z,41.80
2017-09-15T08:35:48.691Z,41.80
2017-09-15T08:38:17.578Z,41.90
2017-09-15T08:40:46.119Z,41.80
2017-09-15T08:43:14.827Z,41.80
2017-09-15T08:45:43.642Z,41.80
2017-09-15T08:48:12.125Z,41.80
2017-09-15T08:50:40.619Z,41.90
2017-09-15T08:53:09.330Z,41.70
2017-09-15T08:55:38.991Z,41.50
2017-09-15T08:58:07.527Z,41.60
2017-09-15T09:00:36.211Z,41.60
2017-09-15T09:03:04.822Z,41.60
2017-09-15T09:05:34.199Z,41.40
2017-09-15T09:08:02.958Z,41.40
2017-09-15T09:10:31.017Z,41.30
2017-09-15T09:12:59.093Z,41.20
2017-09-15T09:15:27.884Z,41.10
2017-09-15T09:17:56.384Z,41.10
2017-09-15T09:20:24.950Z,41.10
2017-09-15T09:22:53.151Z,41.00
2017-09-15T09:25:21.822Z,40.90
2017-09-15T09:27:50.599Z,40.90
2017-09-15T09:30:19.267Z,40.90
2017-09-15T09:32:47.807Z,41.00
2017-09-15T09:35:16.326Z,40.90
2017-09-15T09:37:44.930Z,40.90
2017-09-15T09:40:13.543Z,41.00
2017-09-15T09:42:42.186Z,40.90
2017-09-15T09:45:10.654Z,40.80
2017-09-15T09:47:40.072Z,40.60
2017-09-15T09:50:08.527Z,40.60
2017-09-15T09:52:37.278Z,40.60
2017-09-15T09:55:05.326Z,40.60
2017-09-15T09:57:34.854Z,40.80
2017-09-15T10:00:03.811Z,40.80
2017-09-15T10:02:32.824Z,40.50
2017-09-15T10:05:01.625Z,40.40
2017-09-15T10:07:30.208Z,40.40
2017-09-15T10:09:58.815Z,40.30
2017-09-15T10:12:28.038Z,40.20
2017-09-15T10:14:56.812Z,40.20
2017-09-15T10:17:25.369Z,40.20
2017-09-15T10:19:53.895Z,40.20
2017-09-15T10:22:22.032Z,40.30
2017-09-15T10:24:50.238Z,40.20
2017-09-15T10:27:18.292Z,40.10
2017-09-15T10:29:46.430Z,40.20
2017-09-15T10:32:14.478Z,39.90
2017-09-15T10:34:43.926Z,40.10
2017-09-15T10:37:12.050Z,40.00
2017-09-15T10:39:40.091Z,40.10
2017-09-15T10:42:08.571Z,39.80
2017-09-15T10:44:37.358Z,39.90
2017-09-15T10:47:05.720Z,39.70
2017-09-15T10:49:34.328Z,39.70
2017-09-15T10:52:03.179Z,39.50
2017-09-15T10:54:31.674Z,39.60
2017-09-15T10:57:00.282Z,39.70
2017-09-15T10:59:35.070Z,39.70
2017-09-15T11:02:04.521Z,39.70
2017-09-15T11:04:33.294Z,39.70
2017-09-15T11:07:01.951Z,39.60
2017-09-15T11:09:30.479Z,39.40
2017-09-15T11:11:59.122Z,39.30
2017-09-15T11:14:27.940Z,39.40
2017-09-15T11:16:56.410Z,39.40
2017-09-15T11:19:24.918Z,39.40
2017-09-15T11:21:53.702Z,39.40
2017-09-15T11:24:22.458Z,39.30
2017-09-15T11:26:50.914Z,39.30
2017-09-15T11:29:19.667Z,39.30
2017-09-15T11:31:48.250Z,39.20
2017-09-15T11:34:16.825Z,39.10
2017-09-15T11:36:46.650Z,39.10
2017-09-15T11:39:15.235Z,39.00
2017-09-15T11:41:44.012Z,39.00
2017-09-15T11:44:12.585Z,39.00
2017-09-15T11:46:41.094Z,38.80
2017-09-15T11:49:09.840Z,38.90
2017-09-15T11:51:39.287Z,38.70
2017-09-15T11:54:08.034Z,38.70
2017-09-15T11:56:37.378Z,38.70
2017-09-15T11:59:05.571Z,38.70
2017-09-15T12:01:34.431Z,38.70
2017-09-15T12:04:02.934Z,38.80
2017-09-15T12:06:31.499Z,38.70
2017-09-15T12:08:59.971Z,38.60
2017-09-15T12:11:28.486Z,38.50
2017-09-15T12:13:57.261Z,38.50
2017-09-15T12:16:25.943Z,38.40
2017-09-15T12:18:54.580Z,38.40
2017-09-15T12:21:25.235Z,38.40
2017-09-15T12:24:03.923Z,38.40
2017-09-15T12:26:36.038Z,38.30
2017-09-15T12:29:05.399Z,38.10
2017-09-15T12:31:34.115Z,38.00
2017-09-15T12:34:05.240Z,37.90
2017-09-15T12:36:34.605Z,37.90
2017-09-15T12:39:03.319Z,37.90
2017-09-15T12:41:33.611Z,37.80
2017-09-15T12:44:02.075Z,37.80
2017-09-15T12:46:32.485Z,37.80
2017-09-15T12:49:03.244Z,37.70
2017-09-15T12:51:31.851Z,37.70
2017-09-15T12:53:59.920Z,37.50
2017-09-15T12:56:28.195Z,37.50
2017-09-15T12:58:56.779Z,37.40
2017-09-15T13:01:25.339Z,37.40
2017-09-15T13:03:54.298Z,37.30
2017-09-15T13:06:22.870Z,37.30
2017-09-15T13:08:51.695Z,37.30
2017-09-15T13:11:21.110Z,37.20
2017-09-15T13:13:49.786Z,37.20
2017-09-15T13:16:19.050Z,37.10
2017-09-15T13:18:47.946Z,37.10
2017-09-15T13:21:16.334Z,37.10
2017-09-15T13:23:46.418Z,36.90
2017-09-15T13:26:15.238Z,36.90
2017-09-15T13:28:43.958Z,36.80
2017-09-15T13:31:12.422Z,36.80
2017-09-15T13:33:41.986Z,36.70
2017-09-15T13:36:10.530Z,36.70
2017-09-15T13:38:39.567Z,36.60
2017-09-15T13:41:08.110Z,36.60
2017-09-15T13:43:36.886Z,36.40
2017-09-15T13:46:06.217Z,36.40
2017-09-15T13:48:35.046Z,36.40
2017-09-15T13:51:03.718Z,36.40
2017-09-15T13:53:32.395Z,36.30
2017-09-15T13:56:00.523Z,36.20
2017-09-15T13:58:29.782Z,36.10
2017-09-15T14:00:58.775Z,36.10
2017-09-15T14:03:27.490Z,36.10
2017-09-15T14:05:56.209Z,36.00
2017-09-15T14:08:25.486Z,35.90
2017-09-15T14:10:54.346Z,35.80
2017-09-15T14:13:22.754Z,35.90
2017-09-15T14:15:51.235Z,35.80
2017-09-15T14:18:20.126Z,35.80
2017-09-15T14:20:49.438Z,35.70
2017-09-15T14:23:18.047Z,35.70
2017-09-15T14:25:47.526Z,35.50
2017-09-15T14:28:16.279Z,35.50
2017-09-15T14:30:44.853Z,35.40
2017-09-15T14:33:14.371Z,35.40
2017-09-15T14:35:42.958Z,35.40
2017-09-15T14:38:12.357Z,35.30
2017-09-15T14:40:41.366Z,35.20
2017-09-15T14:43:09.819Z,35.20
2017-09-15T14:45:38.214Z,35.20
2017-09-15T14:48:07.011Z,35.20
2017-09-15T14:50:35.580Z,35.10
2017-09-15T14:53:03.976Z,35.10
2017-09-15T14:55:32.658Z,35.10
2017-09-15T14:58:01.306Z,35.10
2017-09-15T15:00:30.574Z,35.00
2017-09-15T15:02:59.090Z,35.00
2017-09-15T15:05:28.543Z,35.00
2017-09-15T15:07:57.193Z,35.00
2017-09-15T15:10:25.762Z,35.00
2017-09-15T15:12:57.175Z,34.90
2017-09-15T15:15:25.833Z,34.90
2017-09-15T15:17:53.854Z,34.90
2017-09-15T15:20:23.046Z,34.80
2017-09-15T15:22:51.935Z,34.80
2017-09-15T15:25:20.319Z,34.80
2017-09-15T15:27:49.102Z,34.80
2017-09-15T15:30:17.864Z,34.80
2017-09-15T15:32:48.526Z,34.70
2017-09-15T15:35:17.111Z,34.80
2017-09-15T15:37:47.106Z,34.80
2017-09-15T15:40:15.152Z,34.70
2017-09-15T15:42:43.850Z,34.70
2017-09-15T15:45:12.610Z,34.80
2017-09-15T15:47:42.118Z,34.80
2017-09-15T15:50:11.055Z,34.70
2017-09-15T15:52:39.879Z,34.70
2017-09-15T15:55:09.306Z,34.70
2017-09-15T15:57:38.572Z,34.70
2017-09-15T16:00:07.434Z,34.60
2017-09-15T16:02:36.227Z,34.60
2017-09-15T16:05:04.946Z,34.50
2017-09-15T16:07:33.643Z,34.50
2017-09-15T16:10:02.943Z,34.40
2017-09-15T16:12:32.410Z,34.40
2017-09-15T16:15:01.058Z,34.40
2017-09-15T16:17:30.490Z,34.40
2017-09-15T16:19:59.015Z,34.40
2017-09-15T16:22:27.706Z,34.40
2017-09-15T16:24:56.319Z,34.40
2017-09-15T16:27:25.799Z,34.40
2017-09-15T16:29:54.858Z,34.40
2017-09-15T16:32:23.678Z,34.40
2017-09-15T16:34:51.718Z,34.40
2017-09-15T16:37:20.338Z,34.40
2017-09-15T16:39:54.719Z,34.40
2017-09-15T16:42:30.060Z,34.40
2017-09-15T16:45:05.379Z,34.40
2017-09-15T16:47:40.698Z,34.40
2017-09-15T16:50:10.062Z,34.40
2017-09-15T16:52:38.683Z,34.40
2017-09-15T16:55:07.199Z,34.30
2017-09-15T16:57:35.746Z,34.40
2017-09-15T17:00:04.322Z,34.40
2017-09-15T17:02:33.154Z,34.40
2017-09-15T17:05:02.618Z,34.40
2017-09-15T17:07:31.794Z,34.40
2017-09-15T17:10:01.002Z,34.40
2017-09-15T17:12:29.575Z,34.40
2017-09-15T17:14:58.333Z,34.30
2017-09-15T17:17:26.838Z,34.30
2017-09-15T17:19:55.334Z,34.30
2017-09-15T17:22:24.199Z,34.30
2017-09-15T17:24:53.326Z,34.20
2017-09-15T17:27:21.971Z,34.20
2017-09-15T17:29:50.008Z,34.20
2017-09-15T17:32:18.797Z,34.10
2017-09-15T17:34:47.524Z,34.20
2017-09-15T17:37:15.767Z,34.10
2017-09-15T17:39:44.427Z,34.10
2017-09-15T17:42:13.107Z,34.10
2017-09-15T17:44:41.523Z,34.10
2017-09-15T17:47:10.350Z,34.10
2017-09-15T17:49:38.971Z,34.10
2017-09-15T17:52:07.006Z,34.00
2017-09-15T17:54:35.130Z,34.00
2017-09-15T17:57:03.530Z,34.00
2017-09-15T17:59:31.562Z,34.00
2017-09-15T18:02:00.274Z,33.90
2017-09-15T18:04:28.978Z,33.80
2017-09-15T18:06:58.798Z,33.80
2017-09-15T18:09:28.513Z,33.80
2017-09-15T18:11:57.694Z,33.80
2017-09-15T18:14:25.738Z,33.80
2017-09-15T18:16:54.794Z,33.80
2017-09-15T18:19:23.555Z,33.80
2017-09-15T18:21:51.590Z,33.80
2017-09-15T18:24:20.482Z,33.80
2017-09-15T18:26:49.165Z,33.80
2017-09-15T18:29:18.330Z,33.70
2017-09-15T18:31:47.806Z,33.80
2017-09-15T18:34:15.847Z,33.70
2017-09-15T18:36:44.462Z,33.80
2017-09-15T18:39:13.326Z,33.70
2017-09-15T18:41:42.074Z,33.80
2017-09-15T18:46:50.239Z,33.70
2017-09-15T18:49:18.990Z,33.60
2017-09-15T18:51:48.258Z,33.60
2017-09-15T18:54:17.122Z,33.60
2017-09-15T18:56:46.074Z,33.60
2017-09-15T18:59:15.414Z,33.60
2017-09-15T19:01:44.271Z,33.60
2017-09-15T19:04:13.619Z,33.50
2017-09-15T19:06:42.363Z,33.50
2017-09-15T19:09:11.910Z,33.50
2017-09-15T19:11:40.726Z,33.50
2017-09-15T19:14:09.446Z,33.50
2017-09-15T19:16:38.899Z,33.40
2017-09-15T19:19:07.546Z,33.40
2017-09-15T19:21:35.574Z,33.40
2017-09-15T19:24:04.266Z,33.40
2017-09-15T19:26:33.096Z,33.30
2017-09-15T19:29:01.523Z,33.30
2017-09-15T19:31:30.231Z,33.20
2017-09-15T19:33:58.811Z,33.20
2017-09-15T19:36:27.758Z,33.20
2017-09-15T19:38:56.657Z,33.10
2017-09-15T19:41:25.178Z,33.10
2017-09-15T19:43:53.206Z,33.10
2017-09-15T19:46:21.766Z,33.00
2017-09-15T19:48:50.986Z,33.10
2017-09-15T19:51:19.594Z,33.10
2017-09-15T19:53:48.410Z,33.10
2017-09-15T19:56:16.458Z,33.10
2017-09-15T19:58:44.478Z,33.10
2017-09-15T20:01:13.930Z,33.00
2017-09-15T20:03:42.618Z,33.00
2017-09-15T20:06:11.295Z,33.00
2017-09-15T20:08:39.412Z,33.00
2017-09-15T20:11:08.066Z,32.90
2017-09-15T20:13:37.058Z,32.90
2017-09-15T20:16:06.014Z,32.90
2017-09-15T20:18:35.626Z,32.90
2017-09-15T20:21:04.393Z,32.90
2017-09-15T20:23:33.138Z,32.90
2017-09-15T20:26:01.165Z,32.80
2017-09-15T20:28:30.451Z,32.80
2017-09-15T20:30:58.786Z,32.90
2017-09-15T20:33:27.156Z,32.80
2017-09-15T20:35:55.763Z,32.80
2017-09-15T20:38:23.955Z,32.80
2017-09-15T20:40:52.510Z,32.80
2017-09-15T20:43:21.102Z,32.80
2017-09-15T20:45:50.095Z,32.70
2017-09-15T20:48:18.673Z,32.70
2017-09-15T20:50:48.086Z,32.70
2017-09-15T20:53:16.214Z,32.70
2017-09-15T20:55:44.982Z,32.70
2017-09-15T20:58:13.006Z,32.70
2017-09-15T21:00:41.153Z,32.70
2017-09-15T21:03:09.962Z,32.70
2017-09-15T21:05:37.990Z,32.60
2017-09-15T21:08:06.646Z,32.60
2017-09-15T21:10:35.321Z,32.60
2017-09-15T21:13:03.354Z,32.60
2017-09-15T21:15:33.081Z,32.50
2017-09-15T21:18:02.519Z,32.50
2017-09-15T21:20:30.986Z,32.60
2017-09-15T21:22:59.696Z,32.60
2017-09-15T21:25:28.375Z,32.60
2017-09-15T21:27:57.127Z,32.50
2017-09-15T21:30:25.611Z,32.50
2017-09-15T21:32:55.118Z,32.50
2017-09-15T21:35:24.455Z,32.40
2017-09-15T21:37:53.350Z,32.40
2017-09-15T21:40:21.386Z,32.40
2017-09-15T21:42:50.006Z,32.40
2017-09-15T21:45:18.859Z,32.40
2017-09-15T21:47:48.335Z,32.40
2017-09-15T21:50:17.054Z,32.40
2017-09-15T21:52:46.526Z,32.30
2017-09-15T21:55:15.246Z,32.30
2017-09-15T21:57:44.619Z,32.20
2017-09-15T22:00:13.479Z,32.30
2017-09-15T22:02:42.230Z,32.20
2017-09-15T22:05:11.015Z,32.10
2017-09-15T22:07:40.667Z,32.10
2017-09-15T22:10:09.418Z,32.10
2017-09-15T22:12:38.791Z,32.00
2017-09-15T22:15:07.614Z,32.00
2017-09-15T22:17:37.342Z,32.10
2017-09-15T22:20:05.950Z,32.10
2017-09-15T22:22:34.766Z,32.10
2017-09-15T22:25:03.523Z,32.00
2017-09-15T22:27:32.046Z,32.00
2017-09-15T22:30:00.802Z,32.00
2017-09-15T22:32:29.486Z,32.00
2017-09-15T22:34:58.342Z,32.00
2017-09-15T22:37:27.685Z,32.00
2017-09-15T22:39:56.333Z,32.10
2017-09-15T22:42:24.686Z,32.00
2017-09-15T22:44:53.450Z,32.10
2017-09-15T22:47:22.087Z,32.00
2017-09-15T22:49:50.110Z,32.00
2017-09-15T22:52:19.091Z,31.90
2017-09-15T22:54:47.674Z,32.00
2017-09-15T22:57:16.429Z,31.90
2017-09-15T22:59:45.015Z,31.90
2017-09-15T23:02:14.556Z,32.00
2017-09-15T23:04:43.333Z,31.90
2017-09-15T23:07:11.466Z,31.90
2017-09-15T23:09:40.854Z,31.90
2017-09-15T23:12:08.898Z,31.90
2017-09-15T23:14:37.538Z,31.80
2017-09-15T23:17:06.947Z,31.90
2017-09-15T23:19:36.595Z,31.90
2017-09-15T23:22:05.385Z,31.80
2017-09-15T23:24:34.071Z,31.80
2017-09-15T23:27:02.531Z,31.80
2017-09-15T23:29:31.242Z,31.80
2017-09-15T23:31:59.854Z,31.70
2017-09-15T23:34:28.578Z,31.70
2017-09-15T23:36:57.063Z,31.70
2017-09-15T23:39:25.518Z,31.70
2017-09-15T23:41:54.230Z,31.60
2017-09-15T23:44:23.079Z,31.50
2017-09-15T23:46:51.536Z,31.60
2017-09-15T23:49:20.131Z,31.60
2017-09-15T23:51:49.222Z,31.50
2017-09-15T23:54:17.970Z,31.50
2017-09-15T23:56:47.419Z,31.40
2017-09-15T23:59:16.202Z,31.40
